createdAt,value
2022-10-19T00:02:18.445Z,88.40
2022-10-19T00:04:52.769Z,88.15
2022-10-19T00:07:22.451Z,90.60
2022-10-19T00:09:51.905Z,87.35
2022-10-19T00:12:21.156Z,89.88
2022-10-19T00:14:50.453Z,92.00
2022-10-19T00:17:19.777Z,91.63
2022-10-19T00:19:49.000Z,88.88
2022-10-19T00:22:18.382Z,91.90
2022-10-19T00:24:49.476Z,93.20
2022-10-19T00:27:21.790Z,92.55
2022-10-19T00:29:51.316Z,95.80
2022-10-19T00:32:20.409Z,93.75
2022-10-19T00:34:49.740Z,95.28
2022-10-19T00:37:18.925Z,98.50
2022-10-19T00:39:48.142Z,97.45
2022-10-19T00:42:17.750Z,98.75
2022-10-19T00:44:49.622Z,101.97
2022-10-19T00:47:24.410Z,102.30
2022-10-19T00:49:56.679Z,103.90
2022-10-19T00:52:28.881Z,104.85
2022-10-19T00:55:00.397Z,105.65
2022-10-19T00:57:32.775Z,108.68
2022-10-19T01:00:05.249Z,109.38
2022-10-19T01:02:35.123Z,109.03
2022-10-19T01:05:05.357Z,111.60
2022-10-19T01:07:35.091Z,111.80
2022-10-19T01:10:06.401Z,110.97
2022-10-19T01:12:35.508Z,111.53
2022-10-19T01:15:08.356Z,114.03
2022-10-19T01:17:46.176Z,114.00
2022-10-19T01:20:17.974Z,116.43
2022-10-19T01:22:56.900Z,119.18
2022-10-19T01:26:13.295Z,117.32
2022-10-19T01:29:07.631Z,120.35
2022-10-19T01:31:51.272Z,120.22
2022-10-19T01:34:49.355Z,120.40
2022-10-19T01:37:41.771Z,117.47
2022-10-19T01:40:39.087Z,116.88
2022-10-19T01:43:53.002Z,117.82
2022-10-19T01:46:30.985Z,117.50
2022-10-19T01:49:13.121Z,122.07
2022-10-19T01:51:51.346Z,119.90
2022-10-19T01:54:23.337Z,121.55
2022-10-19T01:56:55.398Z,121.05
2022-10-19T01:59:26.845Z,125.55
2022-10-19T02:01:56.919Z,121.95
2022-10-19T02:04:27.339Z,121.63
2022-10-19T02:06:57.775Z,126.63
2022-10-19T02:09:27.394Z,124.35
2022-10-19T02:12:00.198Z,120.97
2022-10-19T02:14:37.917Z,121.40
2022-10-19T02:17:11.314Z,117.95
2022-10-19T02:19:40.850Z,115.88
2022-10-19T02:22:10.982Z,111.40
2022-10-19T02:24:45.660Z,117.50
2022-10-19T02:27:15.121Z,117.80
2022-10-19T02:29:45.760Z,117.90
2022-10-19T02:32:15.053Z,122.00
2022-10-19T02:34:57.799Z,125.10
2022-10-19T02:37:27.459Z,122.53
2022-10-19T02:39:56.719Z,119.25
2022-10-19T02:42:46.488Z,115.85
2022-10-19T02:45:22.698Z,115.88
2022-10-19T02:48:11.014Z,112.05
2022-10-19T02:50:47.281Z,107.22
2022-10-19T02:53:17.486Z,115.55
2022-10-19T02:55:51.927Z,116.30
2022-10-19T02:58:22.807Z,111.82
2022-10-19T03:00:52.234Z,108.93
2022-10-19T03:03:21.693Z,112.32
2022-10-19T03:05:50.877Z,107.25
2022-10-19T03:08:23.144Z,108.15
2022-10-19T03:10:52.626Z,108.90
2022-10-19T03:13:21.720Z,111.97
2022-10-19T03:15:54.031Z,110.93
2022-10-19T03:18:23.170Z,110.43
2022-10-19T03:20:56.483Z,110.40
2022-10-19T03:23:28.037Z,111.07
2022-10-19T03:25:57.079Z,107.80
2022-10-19T03:28:26.785Z,102.72
2022-10-19T03:30:56.292Z,103.28
2022-10-19T03:36:17.230Z,98.43
2022-10-19T03:38:47.063Z,98.00
2022-10-19T03:41:16.313Z,97.05
2022-10-19T03:43:48.766Z,93.10
2022-10-19T03:46:18.651Z,103.15
2022-10-19T03:48:48.223Z,98.80
2022-10-19T03:51:23.547Z,96.85
2022-10-19T03:53:57.430Z,98.15
2022-10-19T03:56:31.259Z,123.22
2022-10-19T03:59:03.679Z,122.93
2022-10-19T04:01:39.394Z,130.18
2022-10-19T04:04:12.749Z,150.25
2022-10-19T04:06:46.082Z,121.20
2022-10-19T04:09:19.005Z,107.82
2022-10-19T04:11:52.017Z,106.32
2022-10-19T04:14:32.021Z,101.93
2022-10-19T04:17:04.855Z,99.10
2022-10-19T04:19:34.102Z,94.25
2022-10-19T04:22:04.547Z,92.80
2022-10-19T04:24:34.451Z,91.93
2022-10-19T04:27:04.557Z,92.88
2022-10-19T04:29:33.656Z,93.85
2022-10-19T04:32:03.172Z,95.88
2022-10-19T04:34:35.156Z,99.75
2022-10-19T04:37:07.048Z,99.35
2022-10-19T04:39:40.282Z,102.05
2022-10-19T04:42:09.319Z,96.25
2022-10-19T04:44:40.831Z,99.82
2022-10-19T04:47:10.094Z,99.95
2022-10-19T04:49:39.360Z,99.47
2022-10-19T04:52:08.843Z,104.53
2022-10-19T04:54:37.964Z,102.93
2022-10-19T04:57:07.113Z,105.72
2022-10-19T04:59:36.218Z,103.95
2022-10-19T05:02:05.662Z,108.70
2022-10-19T05:04:34.760Z,107.90
2022-10-19T05:07:04.907Z,107.00
2022-10-19T05:09:34.091Z,110.30
2022-10-19T05:12:05.562Z,104.43
2022-10-19T05:14:36.797Z,103.75
2022-10-19T05:17:08.321Z,104.15
2022-10-19T05:19:37.333Z,110.07
2022-10-19T05:22:06.477Z,107.57
2022-10-19T05:24:35.466Z,108.90
2022-10-19T05:27:04.657Z,106.78
2022-10-19T05:29:34.779Z,110.07
2022-10-19T05:32:04.911Z,107.88
2022-10-19T05:34:34.122Z,111.68
2022-10-19T05:37:04.756Z,114.57
2022-10-19T05:39:33.874Z,115.82
2022-10-19T05:42:03.138Z,113.35
2022-10-19T05:44:32.285Z,111.80
2022-10-19T05:47:01.478Z,112.63
2022-10-19T05:49:33.411Z,112.10
2022-10-19T05:52:04.691Z,111.97
2022-10-19T05:54:34.001Z,114.63
2022-10-19T05:57:06.502Z,113.75
2022-10-19T05:59:35.645Z,116.32
2022-10-19T06:02:06.410Z,113.18
2022-10-19T06:04:35.780Z,116.43
2022-10-19T06:07:04.896Z,112.40
2022-10-19T06:09:37.132Z,115.22
2022-10-19T06:12:06.589Z,112.30
2022-10-19T06:14:35.737Z,113.82
2022-10-19T06:17:04.905Z,111.93
2022-10-19T06:19:34.054Z,115.47
2022-10-19T06:22:03.321Z,113.80
2022-10-19T06:24:32.565Z,112.97
2022-10-19T06:27:01.676Z,114.57
2022-10-19T06:29:30.653Z,114.78
2022-10-19T06:32:01.199Z,114.10
2022-10-19T06:34:30.546Z,113.50
2022-10-19T06:36:59.668Z,111.13
2022-10-19T06:39:29.329Z,112.22
2022-10-19T06:41:58.419Z,114.53
2022-10-19T06:44:28.190Z,115.07
2022-10-19T06:46:57.309Z,120.72
2022-10-19T06:49:26.376Z,125.45
2022-10-19T06:51:55.519Z,138.13
2022-10-19T06:54:26.427Z,160.43
2022-10-19T06:56:55.863Z,166.07
2022-10-19T06:59:25.032Z,162.20
2022-10-19T07:01:54.005Z,155.70
2022-10-19T07:04:23.168Z,141.35
2022-10-19T07:06:53.516Z,123.22
2022-10-19T07:09:23.559Z,123.22
2022-10-19T07:11:53.288Z,118.07
2022-10-19T07:14:25.629Z,122.68
2022-10-19T07:16:55.038Z,119.03
2022-10-19T07:19:27.570Z,122.72
2022-10-19T07:21:56.838Z,119.38
2022-10-19T07:24:26.856Z,117.10
2022-10-19T07:26:56.790Z,121.22
2022-10-19T07:29:25.762Z,121.68
2022-10-19T07:31:54.959Z,130.88
2022-10-19T07:34:26.782Z,154.30
2022-10-19T07:36:59.195Z,126.13
2022-10-19T07:39:28.583Z,123.05
2022-10-19T07:42:00.173Z,125.47
2022-10-19T07:44:31.838Z,133.90
2022-10-19T07:47:01.828Z,147.65
2022-10-19T07:49:31.060Z,135.05
2022-10-19T07:52:00.347Z,130.00
2022-10-19T07:54:30.079Z,132.57
2022-10-19T07:57:01.647Z,133.38
2022-10-19T07:59:32.006Z,133.85
2022-10-19T08:02:03.587Z,134.02
2022-10-19T08:07:22.185Z,126.65
2022-10-19T08:09:53.940Z,127.68
2022-10-19T08:12:26.206Z,130.45
2022-10-19T08:14:58.558Z,141.25
2022-10-19T08:17:27.717Z,157.45
2022-10-19T08:19:58.851Z,155.90
2022-10-19T08:22:28.415Z,151.20
2022-10-19T08:24:57.432Z,158.45
2022-10-19T08:27:26.851Z,155.98
2022-10-19T08:29:56.178Z,147.43
2022-10-19T08:32:25.384Z,148.65
2022-10-19T08:34:54.388Z,144.65
2022-10-19T08:37:40.193Z,154.02
2022-10-19T08:40:31.775Z,158.18
2022-10-19T08:43:23.026Z,156.52
2022-10-19T08:46:16.090Z,155.57
2022-10-19T08:48:46.527Z,178.40
2022-10-19T08:51:15.785Z,156.35
2022-10-19T08:53:56.790Z,151.38
2022-10-19T08:56:51.797Z,156.93
2022-10-19T08:59:32.282Z,164.63
2022-10-19T09:02:12.461Z,174.13
2022-10-19T09:04:45.829Z,182.25
2022-10-19T09:07:24.382Z,177.80
2022-10-19T09:10:20.967Z,166.10
2022-10-19T09:13:26.688Z,154.57
2022-10-19T09:15:58.702Z,147.52
2022-10-19T09:18:30.655Z,150.05
2022-10-19T09:21:11.206Z,147.93
2022-10-19T09:24:05.843Z,136.90
2022-10-19T09:26:42.818Z,138.52
2022-10-19T09:29:26.425Z,137.07
2022-10-19T09:32:00.245Z,141.27
2022-10-19T09:34:48.302Z,140.18
2022-10-19T09:37:26.300Z,142.80
2022-10-19T09:39:57.427Z,137.82
2022-10-19T09:42:34.563Z,144.45
2022-10-19T09:45:37.802Z,146.80
2022-10-19T09:48:32.148Z,142.98
2022-10-19T09:51:04.760Z,149.20
2022-10-19T09:53:34.088Z,155.77
2022-10-19T09:56:10.227Z,155.95
2022-10-19T09:58:52.202Z,150.25
2022-10-19T10:01:41.457Z,162.20
2022-10-19T10:04:18.653Z,145.05
2022-10-19T10:06:49.540Z,140.50
2022-10-19T10:09:22.542Z,150.73
2022-10-19T10:14:34.656Z,159.55
2022-10-19T10:17:08.514Z,159.73
2022-10-19T10:19:38.197Z,154.35
2022-10-19T10:22:26.527Z,151.75
2022-10-19T10:24:57.338Z,147.45
2022-10-19T10:27:33.270Z,141.13
2022-10-19T10:30:17.959Z,139.65
2022-10-19T10:32:57.992Z,137.45
2022-10-19T10:35:36.092Z,141.65
2022-10-19T10:38:18.344Z,143.27
2022-10-19T10:40:57.421Z,138.35
2022-10-19T10:43:34.782Z,138.45
2022-10-19T10:46:17.890Z,138.07
2022-10-19T10:49:13.580Z,134.65
2022-10-19T10:51:52.206Z,134.68
2022-10-19T10:54:24.852Z,133.98
2022-10-19T10:57:14.895Z,134.02
2022-10-19T11:00:16.395Z,128.93
2022-10-19T11:03:15.724Z,133.85
2022-10-19T11:05:56.978Z,134.13
2022-10-19T11:08:37.315Z,137.77
2022-10-19T11:11:24.447Z,137.13
2022-10-19T11:13:56.417Z,135.25
2022-10-19T11:16:36.917Z,132.15
2022-10-19T11:19:25.200Z,135.38
2022-10-19T11:22:04.091Z,139.63
2022-10-19T11:24:43.857Z,135.18
2022-10-19T11:27:24.667Z,133.65
2022-10-19T11:29:59.481Z,130.45
2022-10-19T11:32:34.890Z,127.57
2022-10-19T11:35:29.955Z,127.95
2022-10-19T11:38:30.196Z,129.65
2022-10-19T11:41:35.997Z,126.03
2022-10-19T11:44:05.037Z,129.30
2022-10-19T11:47:12.441Z,144.00
2022-10-19T11:50:11.415Z,133.43
2022-10-19T11:53:15.640Z,133.23
2022-10-19T11:55:44.801Z,134.00
2022-10-19T11:58:44.264Z,132.57
2022-10-19T12:01:29.641Z,136.75
2022-10-19T12:04:20.496Z,140.32
2022-10-19T12:07:21.014Z,145.60
2022-10-19T12:10:53.449Z,139.27
2022-10-19T12:13:34.912Z,132.02
2022-10-19T12:16:07.019Z,128.52
2022-10-19T12:18:55.396Z,128.57
2022-10-19T12:21:32.715Z,132.98
2022-10-19T12:24:06.167Z,127.13
2022-10-19T12:26:38.040Z,122.00
2022-10-19T12:29:15.720Z,129.90
2022-10-19T12:31:48.191Z,135.32
2022-10-19T12:34:57.607Z,140.05
2022-10-19T12:37:40.726Z,128.77
2022-10-19T12:40:21.103Z,128.52
2022-10-19T12:42:59.764Z,131.38
2022-10-19T12:45:37.094Z,133.23
2022-10-19T12:48:17.355Z,134.85
2022-10-19T12:51:12.957Z,132.85
2022-10-19T12:53:50.164Z,123.43
2022-10-19T12:56:28.257Z,126.85
2022-10-19T12:59:03.153Z,138.23
2022-10-19T13:01:35.228Z,148.77
2022-10-19T13:04:10.640Z,152.90
2022-10-19T13:06:50.351Z,152.13
2022-10-19T13:09:28.515Z,162.65
2022-10-19T13:12:19.609Z,163.13
2022-10-19T13:15:32.937Z,162.88
2022-10-19T13:18:17.750Z,176.88
2022-10-19T13:20:54.607Z,179.25
2022-10-19T13:23:33.298Z,184.10
2022-10-19T13:26:32.814Z,190.57
2022-10-19T13:29:03.033Z,194.05
2022-10-19T13:31:33.887Z,195.45
2022-10-19T13:34:12.355Z,188.82
2022-10-19T13:37:01.703Z,185.57
2022-10-19T13:39:31.654Z,183.60
2022-10-19T13:42:00.872Z,186.82
2022-10-19T13:44:36.417Z,187.73
2022-10-19T13:47:08.364Z,181.68
2022-10-19T13:49:46.229Z,185.80
2022-10-19T13:52:36.995Z,184.85
2022-10-19T13:55:49.597Z,182.63
2022-10-19T13:58:40.083Z,179.38
2022-10-19T14:01:37.298Z,183.15
2022-10-19T14:04:22.657Z,199.13
2022-10-19T14:07:06.574Z,200.27
2022-10-19T14:09:58.046Z,200.20
2022-10-19T14:12:30.237Z,198.40
2022-10-19T14:15:00.592Z,195.32
2022-10-19T14:17:43.459Z,193.98
2022-10-19T14:20:38.889Z,192.38
2022-10-19T14:23:41.668Z,195.50
2022-10-19T14:26:21.660Z,198.55
2022-10-19T14:28:59.509Z,200.13
2022-10-19T14:31:37.692Z,196.70
2022-10-19T14:34:10.399Z,199.27
2022-10-19T14:36:44.454Z,194.48
2022-10-19T14:39:32.653Z,191.00
2022-10-19T14:42:07.489Z,189.73
2022-10-19T14:44:42.713Z,189.75
2022-10-19T14:47:31.289Z,191.15
2022-10-19T14:50:00.451Z,185.80
2022-10-19T14:52:35.069Z,190.25
2022-10-19T14:55:17.813Z,196.27
2022-10-19T14:57:51.040Z,201.95
2022-10-19T15:00:23.381Z,204.50
2022-10-19T15:03:05.327Z,207.50
2022-10-19T15:05:47.332Z,212.40
2022-10-19T15:08:49.441Z,217.07
2022-10-19T15:11:23.637Z,227.25
2022-10-19T15:14:00.043Z,230.65
2022-10-19T15:17:04.503Z,229.18
2022-10-19T15:19:41.409Z,220.50
2022-10-19T15:22:10.580Z,214.70
2022-10-19T15:24:41.239Z,210.45
2022-10-19T15:27:22.965Z,212.52
2022-10-19T15:30:26.748Z,211.55
2022-10-19T15:32:58.784Z,216.77
2022-10-19T15:35:31.544Z,214.40
2022-10-19T15:38:03.982Z,200.43
2022-10-19T15:40:39.729Z,203.55
2022-10-19T15:43:48.438Z,192.50
2022-10-19T15:46:45.007Z,182.80
2022-10-19T15:49:17.387Z,192.85
2022-10-19T15:51:50.322Z,210.85
2022-10-19T15:54:20.303Z,218.80
2022-10-19T15:56:53.984Z,203.63
2022-10-19T15:59:24.698Z,199.05
2022-10-19T16:01:56.072Z,198.05
2022-10-19T16:04:25.568Z,215.13
2022-10-19T16:06:54.765Z,220.27
2022-10-19T16:09:24.006Z,237.48
2022-10-19T16:11:57.704Z,236.95
2022-10-19T16:14:33.073Z,241.05
2022-10-19T16:17:05.978Z,261.23
2022-10-19T16:19:35.106Z,257.08
2022-10-19T16:22:04.987Z,253.40
2022-10-19T16:24:34.255Z,227.65
2022-10-19T16:27:03.575Z,223.13
2022-10-19T16:29:32.852Z,226.27
2022-10-19T16:32:03.146Z,222.20
2022-10-19T16:34:32.286Z,220.88
2022-10-19T16:37:05.741Z,216.57
2022-10-19T16:39:36.802Z,217.02
2022-10-19T16:42:05.925Z,211.15
2022-10-19T16:44:35.147Z,196.05
2022-10-19T16:47:06.841Z,189.45
2022-10-19T16:49:36.043Z,190.70
2022-10-19T16:52:11.087Z,173.40
2022-10-19T16:54:43.323Z,168.07
2022-10-19T16:57:12.456Z,159.73
2022-10-19T16:59:42.871Z,160.88
2022-10-19T17:02:12.700Z,159.40
2022-10-19T17:04:41.942Z,162.50
2022-10-19T17:07:12.414Z,156.18
2022-10-19T17:09:42.942Z,159.00
2022-10-19T17:12:13.762Z,166.30
2022-10-19T17:14:44.314Z,164.57
2022-10-19T17:17:13.858Z,161.25
2022-10-19T17:19:42.876Z,161.43
2022-10-19T17:22:11.991Z,158.15
2022-10-19T17:24:41.307Z,165.25
2022-10-19T17:27:10.941Z,165.55
2022-10-19T17:29:40.428Z,160.85
2022-10-19T17:32:09.508Z,165.95
2022-10-19T17:34:38.677Z,173.50
2022-10-19T17:37:07.666Z,178.50
2022-10-19T17:39:37.766Z,182.75
2022-10-19T17:42:06.807Z,184.07
2022-10-19T17:44:36.002Z,191.35
2022-10-19T17:47:05.408Z,184.27
2022-10-19T17:49:34.485Z,183.60
2022-10-19T17:52:03.681Z,186.98
2022-10-19T17:54:43.401Z,189.27
2022-10-19T17:57:21.777Z,190.60
2022-10-19T17:59:52.927Z,196.20
2022-10-19T18:02:22.555Z,197.77
2022-10-19T18:04:51.684Z,199.20
2022-10-19T18:07:22.862Z,194.38
2022-10-19T18:09:52.426Z,197.30
2022-10-19T18:12:21.666Z,199.95
2022-10-19T18:14:50.779Z,197.93
2022-10-19T18:17:22.773Z,205.52
2022-10-19T18:19:54.539Z,200.05
2022-10-19T18:22:23.593Z,199.15
2022-10-19T18:24:55.440Z,197.27
2022-10-19T18:27:24.556Z,201.95
2022-10-19T18:29:53.969Z,197.45
2022-10-19T18:32:23.036Z,201.73
2022-10-19T18:34:52.107Z,203.65
2022-10-19T18:37:21.286Z,203.68
2022-10-19T18:39:53.085Z,199.57
2022-10-19T18:42:22.230Z,210.27
2022-10-19T18:44:51.354Z,214.45
2022-10-19T18:47:20.453Z,210.02
2022-10-19T18:49:52.363Z,212.52
2022-10-19T18:52:21.599Z,209.40
2022-10-19T18:54:50.869Z,210.18
2022-10-19T18:57:20.215Z,206.77
2022-10-19T18:59:50.449Z,205.73
2022-10-19T19:02:28.588Z,201.68
2022-10-19T19:05:08.784Z,202.65
2022-10-19T19:07:40.240Z,203.32
2022-10-19T19:10:11.224Z,201.20
2022-10-19T19:12:43.304Z,201.57
2022-10-19T19:15:15.905Z,204.00
2022-10-19T19:17:49.192Z,204.52
2022-10-19T19:20:24.366Z,209.25
2022-10-19T19:22:55.789Z,203.80
2022-10-19T19:25:26.038Z,202.43
2022-10-19T19:28:02.517Z,204.50
2022-10-19T19:30:43.327Z,199.02
2022-10-19T19:33:20.011Z,201.63
2022-10-19T19:35:53.911Z,203.35
2022-10-19T19:38:26.126Z,209.13
2022-10-19T19:40:59.047Z,216.95
2022-10-19T19:43:29.931Z,214.63
2022-10-19T19:46:04.764Z,214.95
2022-10-19T19:48:42.304Z,208.88
2022-10-19T19:51:20.762Z,209.88
2022-10-19T19:53:54.331Z,210.45
2022-10-19T19:56:26.465Z,200.55
2022-10-19T19:59:01.508Z,197.32
2022-10-19T20:01:34.229Z,189.75
2022-10-19T20:04:05.074Z,188.15
2022-10-19T20:06:38.891Z,190.25
2022-10-19T20:09:12.629Z,188.32
2022-10-19T20:11:44.415Z,196.00
2022-10-19T20:14:14.903Z,186.38
2022-10-19T20:16:49.370Z,186.95
2022-10-19T20:19:21.463Z,184.38
2022-10-19T20:21:57.736Z,187.43
2022-10-19T20:24:37.654Z,184.35
2022-10-19T20:27:08.588Z,186.85
2022-10-19T20:29:41.939Z,186.98
2022-10-19T20:32:43.489Z,189.65
2022-10-19T20:35:16.664Z,189.00
2022-10-19T20:37:53.765Z,190.35
2022-10-19T20:40:25.920Z,184.20
2022-10-19T20:42:57.921Z,185.77
2022-10-19T20:45:31.448Z,186.32
2022-10-19T20:48:04.532Z,197.50
2022-10-19T20:50:41.890Z,188.32
2022-10-19T20:53:17.445Z,191.25
2022-10-19T20:55:50.960Z,191.52
2022-10-19T20:58:21.673Z,191.65
2022-10-19T21:00:52.350Z,186.18
2022-10-19T21:03:25.487Z,197.48
2022-10-19T21:05:58.695Z,188.57
2022-10-19T21:08:29.741Z,190.27
2022-10-19T21:11:00.817Z,183.43
2022-10-19T21:13:32.735Z,192.80
2022-10-19T21:16:10.892Z,192.32
2022-10-19T21:18:43.331Z,189.40
2022-10-19T21:21:25.286Z,191.70
2022-10-19T21:24:06.398Z,194.52
2022-10-19T21:26:38.679Z,188.50
2022-10-19T21:29:12.125Z,192.38
2022-10-19T21:31:47.875Z,188.52
2022-10-19T21:34:26.757Z,176.57
2022-10-19T21:36:59.457Z,188.60
2022-10-19T21:39:31.918Z,193.20
2022-10-19T21:42:05.354Z,192.25
2022-10-19T21:44:36.040Z,194.60
2022-10-19T21:47:09.477Z,193.70
2022-10-19T21:49:39.784Z,196.43
2022-10-19T21:52:13.826Z,198.48
2022-10-19T21:54:48.674Z,197.15
2022-10-19T21:57:19.310Z,202.15
2022-10-19T21:59:53.838Z,207.35
2022-10-19T22:02:24.627Z,207.75
2022-10-19T22:04:56.065Z,213.10
2022-10-19T22:07:26.287Z,201.93
2022-10-19T22:09:57.989Z,201.45
2022-10-19T22:12:31.246Z,202.05
2022-10-19T22:15:05.653Z,214.63
2022-10-19T22:17:37.871Z,192.30
2022-10-19T22:20:13.936Z,202.23
2022-10-19T22:22:44.731Z,202.25
2022-10-19T22:25:17.269Z,212.85
2022-10-19T22:27:51.688Z,206.48
2022-10-19T22:30:24.779Z,207.13
2022-10-19T22:32:55.646Z,232.90
2022-10-19T22:35:26.551Z,234.38
2022-10-19T22:37:57.906Z,224.00
2022-10-19T22:40:28.907Z,242.63
2022-10-19T22:43:56.597Z,243.40
2022-10-19T22:47:13.867Z,77.43
2022-10-19T22:49:42.983Z,75.40
2022-10-19T22:52:12.629Z,75.70
2022-10-19T22:54:45.373Z,75.78
2022-10-19T22:57:22.757Z,75.95
2022-10-19T22:59:52.349Z,77.22
2022-10-19T23:02:21.993Z,73.50
2022-10-19T23:04:54.466Z,78.57
2022-10-19T23:07:24.192Z,77.78
2022-10-19T23:09:53.517Z,74.15
2022-10-19T23:12:23.236Z,74.97
2022-10-19T23:14:52.857Z,77.53
2022-10-19T23:17:22.165Z,76.22
2022-10-19T23:19:51.177Z,77.53
2022-10-19T23:22:20.789Z,77.00
2022-10-19T23:24:49.974Z,75.80
2022-10-19T23:27:19.800Z,75.80
2022-10-19T23:29:49.531Z,76.38
2022-10-19T23:32:19.092Z,74.15
2022-10-19T23:34:48.777Z,74.40
2022-10-19T23:37:18.939Z,75.20
2022-10-19T23:39:48.555Z,72.57
2022-10-19T23:42:19.041Z,76.57
2022-10-19T23:44:52.624Z,74.78
2022-10-19T23:47:22.817Z,76.25
2022-10-19T23:49:53.260Z,74.82
2022-10-19T23:52:23.874Z,75.70
2022-10-19T23:54:55.485Z,78.47
2022-10-19T23:57:25.947Z,76.40
2022-10-19T23:59:56.400Z,76.03
